Schedule Details


Flight Number: CTN4491
Departure: Heathrow (EGLL) at 17:00
Arrival: Franjo Tudman (LDZA) at 20:15
Route: DET UL6 DVR L9 KONAN UL607 KOK UM150 PITES UZ380 MAH Y161 MUN UM867 VAROB DCT PIKIT DCT ARGOM

Weather Information
EGLL 251720Z AUTO 17008KT 130V240 9999 NCD 31/12 Q1018 NOSIG
LDZA 251700Z 08004KT 040V120 9999 FEW038 27/19 Q1018 NOSIG
Schedule Frequency

Route Map